aviador You're here:

KRVS Decoded Metar

TULSA in OK, USA
Report Time2017-12-16 17:53:00
UTC Time2017-12-16 18:53:33
Flight Rules vfr VFR
Wind190° at 12 kt
W.Decomp.*RWY 19: 11.9 kt HW 1.3 kt LCW
RWY 13: 7.1 kt HW 9.7 kt RCW
W.Rank190° ranks 3
Current wind is above 190° avg. (9.3)
Visibility9999 m
Phenomena:N/A
Clouds:N/A
Expected CloudBase > 7,200 ft AGL from Temp-Dew spread
CeilingNone
Temp14°C (ISA 0)
Dew Point-4°C (29% RH)
AAT7.2°C
QNH1016 hPa
Density Alt659 ft
Elevation656 ft
Report Wrong Elevation
Raw Report
KRVS 161753Z 19012KT 10SM CLR 14/M04 A3001 RMK AO2 SLP168
T01391044 10139 20017 58013=

Extra information for KRVS:More info

Metar Taf Metar & Taf Last 4 Metars F.Rules Stats Wind Profile Meteogram Temp Stats Airport Information Weather charts Add Link Nearby VenuesMetar ALERT Operation Metar Decoded Social comments

AIRNAV info for KRVS